Time;durP1;ratioP1;P1;durP2;ratioP2;P2;SDS_P1;SDS_P2;PMS_P1;PMS_P2;Temp;Humidity;BMP_temperature;BMP_pressure;BME280_temperature;BME280_humidity;BME280_pressure;Samples;Min_cycle;Max_cycle;Signal;HPM_P1;HPM_P2
2022/06/13 00:02:00;;;;;;;1.38;1.00;;;;;;;22.09;65.57;100604.47;5033899;28;20888;-74
2022/06/13 00:04:25;;;;;;;3.40;1.10;;;;;;;22.14;65.80;100598.78;5033943;28;20410;-74
2022/06/13 00:06:50;;;;;;;1.37;1.20;;;;;;;22.23;65.92;100580.28;5033889;28;20470;-74
2022/06/13 00:09:16;;;;;;;3.00;1.07;;;;;;;22.19;66.19;100579.34;5032935;28;20430;-73
2022/06/13 00:11:41;;;;;;;1.80;1.30;;;;;;;22.07;65.92;100594.84;5034092;28;20387;-74
2022/06/13 00:14:07;;;;;;;1.48;0.93;;;;;;;21.99;66.16;100592.88;5033869;28;20445;-74
2022/06/13 00:16:33;;;;;;;1.27;1.00;;;;;;;22.07;65.88;100592.91;5034032;28;20474;-74
2022/06/13 00:18:58;;;;;;;3.30;1.40;;;;;;;22.06;66.39;100574.69;5033923;28;20866;-74
2022/06/13 00:21:31;;;;;;;2.97;1.37;;;;;;;21.95;66.77;100586.34;5033787;28;20487;-74
2022/06/13 00:23:57;;;;;;;2.55;1.65;;;;;;;21.96;67.42;100594.31;5033948;28;20422;-74
2022/06/13 00:26:25;;;;;;;1.80;1.10;;;;;;;21.99;67.48;100595.63;5033706;28;20443;-74
2022/06/13 00:28:52;;;;;;;1.77;1.20;;;;;;;21.98;67.55;100600.34;5033692;28;20433;-74
2022/06/13 00:31:18;;;;;;;1.20;1.10;;;;;;;21.97;67.56;100597.88;5033393;28;20403;-73
2022/06/13 00:33:43;;;;;;;1.67;1.35;;;;;;;21.99;66.86;100604.72;5033453;28;20441;-74
2022/06/13 00:36:09;;;;;;;6.40;1.20;;;;;;;22.00;66.30;100605.50;5033539;28;20391;-74
2022/06/13 00:38:36;;;;;;;1.60;1.10;;;;;;;21.93;66.36;100608.72;5033554;28;20448;-74
2022/06/13 00:41:06;;;;;;;1.67;1.20;;;;;;;21.88;65.91;100605.28;5012126;28;20400;-74
2022/06/13 00:43:32;;;;;;;1.20;1.00;;;;;;;21.88;66.29;100602.50;5030836;28;20905;-73
2022/06/13 00:45:57;;;;;;;2.00;1.60;;;;;;;21.86;66.46;100607.53;5033329;28;20387;-73
2022/06/13 00:48:28;;;;;;;1.30;1.20;;;;;;;21.88;66.68;100605.28;5033346;28;20486;-74
2022/06/13 00:50:57;;;;;;;1.67;1.30;;;;;;;21.92;66.84;100614.59;5033493;28;20398;-73
2022/06/13 00:53:26;;;;;;;1.75;1.30;;;;;;;21.93;67.21;100608.72;5033351;28;20846;-74
2022/06/13 00:55:59;;;;;;;2.27;1.23;;;;;;;21.93;66.96;100618.97;5033342;28;20486;-74
2022/06/13 00:58:29;;;;;;;1.20;1.10;;;;;;;21.93;67.07;100610.69;5033236;28;20390;-73
2022/06/13 01:00:56;;;;;;;2.33;1.25;;;;;;;21.95;67.09;100606.50;5032730;28;20511;-74
2022/06/13 01:03:26;;;;;;;3.63;1.48;;;;;;;21.98;66.78;100605.03;5032964;28;20399;-74
2022/06/13 01:05:53;;;;;;;2.03;1.40;;;;;;;22.01;66.54;100607.16;5032686;28;20952;-74
2022/06/13 01:08:21;;;;;;;3.92;1.38;;;;;;;21.99;66.64;100603.91;5031720;28;20402;-74
2022/06/13 01:13:53;;;;;;;2.53;1.50;;;;;;;21.95;66.50;100594.63;5032936;28;20470;-73
2022/06/13 01:17:07;;;;;;;1.63;1.40;;;;;;;21.92;66.71;100590.56;5032718;28;20468;-74
2022/06/13 01:20:02;;;;;;;1.38;1.10;;;;;;;21.89;66.97;100602.25;5000748;28;20913;-74
2022/06/13 01:22:58;;;;;;;1.83;1.30;;;;;;;21.90;67.17;100603.84;5032769;28;20395;-74
2022/06/13 01:25:37;;;;;;;3.00;1.38;;;;;;;21.92;66.72;100611.81;5032522;28;20454;-74
2022/06/13 01:28:11;;;;;;;2.10;1.77;;;;;;;21.90;66.94;100611.34;5032433;28;20423;-74
2022/06/13 01:31:01;;;;;;;2.27;1.20;;;;;;;21.93;66.86;100613.47;5032283;28;20399;-74
2022/06/13 01:33:41;;;;;;;3.80;1.38;;;;;;;21.92;67.24;100623.69;5019829;28;20732;-74
2022/06/13 01:36:33;;;;;;;1.23;1.00;;;;;;;21.84;67.70;100624.41;5032364;28;20888;-74
2022/06/13 01:39:13;;;;;;;2.08;1.30;;;;;;;21.74;67.92;100617.19;5032261;28;20806;-74
2022/06/13 01:42:07;;;;;;;1.95;1.20;;;;;;;21.76;67.87;100610.56;5014560;28;20533;-73
2022/06/13 01:44:42;;;;;;;1.73;1.40;;;;;;;21.81;67.27;100608.47;5014478;28;20395;-74
2022/06/13 01:47:42;;;;;;;3.25;1.67;;;;;;;21.84;67.41;100607.03;5032086;28;20886;-74
2022/06/13 01:50:36;;;;;;;1.80;1.52;;;;;;;21.81;67.56;100614.00;5032083;28;20771;-74
2022/06/13 01:53:24;;;;;;;3.83;1.40;;;;;;;21.73;67.75;100621.09;5032067;28;20382;-74
2022/06/13 01:56:09;;;;;;;1.73;1.33;;;;;;;21.69;68.10;100617.34;5031977;28;20449;-74
2022/06/13 01:58:53;;;;;;;2.83;1.42;;;;;;;21.68;68.07;100615.72;5032344;28;20398;-74
2022/06/13 02:01:50;;;;;;;1.27;1.23;;;;;;;21.67;67.87;100608.56;5031714;28;20877;-74
2022/06/13 02:04:24;;;;;;;4.00;1.63;;;;;;;21.73;67.82;100612.81;5031934;28;20391;-74
2022/06/13 02:07:09;;;;;;;2.45;1.40;;;;;;;21.71;67.63;100617.84;5031861;28;20410;-74
2022/06/13 02:09:42;;;;;;;1.30;1.20;;;;;;;21.48;68.44;100615.41;5031978;28;20470;-73
2022/06/13 02:12:11;;;;;;;2.50;1.52;;;;;;;21.47;68.22;100620.09;5031801;28;20417;-74
2022/06/13 02:14:45;;;;;;;1.92;1.42;;;;;;;21.45;68.30;100616.03;5031790;28;20449;-74
2022/06/13 02:17:16;;;;;;;2.13;1.70;;;;;;;21.40;68.61;100613.41;5031454;28;20398;-73
2022/06/13 02:19:47;;;;;;;12.93;2.60;;;;;;;21.37;68.75;100622.31;5031789;28;20825;-74
2022/06/13 02:22:16;;;;;;;8.48;2.10;;;;;;;21.34;68.97;100623.72;5031458;28;20391;-73
2022/06/13 02:24:46;;;;;;;3.90;1.30;;;;;;;21.35;68.79;100630.06;5031703;28;20399;-74
2022/06/13 02:27:15;;;;;;;2.75;1.70;;;;;;;21.36;68.58;100628.94;5031805;28;20465;-74
2022/06/13 02:29:47;;;;;;;1.50;1.40;;;;;;;21.36;68.06;100632.50;5029962;28;20394;-74
2022/06/13 02:32:18;;;;;;;3.83;1.70;;;;;;;21.39;68.28;100622.78;5031565;28;20885;-74
2022/06/13 02:34:53;;;;;;;6.28;1.98;;;;;;;21.44;67.40;100629.00;5031514;28;20399;-73
2022/06/13 02:37:30;;;;;;;2.92;1.45;;;;;;;21.48;67.64;100623.66;5031503;28;20398;-74
2022/06/13 02:40:12;;;;;;;2.25;1.50;;;;;;;21.44;67.32;100617.97;5031265;28;20405;-74
2022/06/13 02:43:00;;;;;;;1.43;1.30;;;;;;;21.39;68.06;100625.56;5031487;28;20932;-74
2022/06/13 02:45:32;;;;;;;1.85;1.75;;;;;;;21.30;68.38;100633.75;5031406;28;20865;-74
2022/06/13 02:48:16;;;;;;;3.17;1.70;;;;;;;21.31;68.14;100620.78;5031364;28;20419;-74
2022/06/13 02:50:45;;;;;;;1.95;1.65;;;;;;;21.31;68.24;100632.63;5031425;28;20399;-74
2022/06/13 02:53:25;;;;;;;3.28;1.42;;;;;;;21.24;68.31;100632.22;5031352;28;20469;-74
2022/06/13 02:56:12;;;;;;;2.92;1.70;;;;;;;21.14;68.49;100629.75;5031381;28;20394;-74
2022/06/13 02:59:05;;;;;;;2.63;1.60;;;;;;;21.09;68.79;100624.28;5031258;28;20403;-74
2022/06/13 03:01:39;;;;;;;1.33;1.23;;;;;;;21.15;68.34;100631.34;5031007;28;20466;-74
2022/06/13 03:04:13;;;;;;;2.67;1.98;;;;;;;21.13;68.07;100623.41;5031545;28;20409;-74
2022/06/13 03:06:48;;;;;;;2.95;1.70;;;;;;;21.07;68.52;100630.13;5031028;28;20419;-74
2022/06/13 03:09:22;;;;;;;4.63;1.77;;;;;;;20.93;69.00;100623.00;5030806;28;20750;-74
2022/06/13 03:11:54;;;;;;;2.50;1.48;;;;;;;20.94;68.95;100630.97;5031169;28;20395;-74
2022/06/13 03:14:34;;;;;;;4.03;1.73;;;;;;;20.95;68.70;100629.84;5031151;28;20409;-74
2022/06/13 03:17:14;;;;;;;2.90;1.70;;;;;;;20.93;68.62;100631.28;5031270;28;20464;-74
2022/06/13 03:20:14;;;;;;;5.82;1.88;;;;;;;20.89;68.84;100633.00;5031230;28;20387;-74
2022/06/13 03:22:48;;;;;;;4.43;1.77;;;;;;;20.79;69.07;100633.22;4980965;28;20455;-74
2022/06/13 03:25:41;;;;;;;4.80;1.55;;;;;;;20.75;69.45;100635.78;5016114;28;20375;-74
2022/06/13 03:28:13;;;;;;;1.60;1.40;;;;;;;20.77;69.44;100647.34;5032787;28;20414;-74
2022/06/13 03:30:47;;;;;;;1.90;1.48;;;;;;;20.75;69.36;100643.25;5034465;28;20786;-74
2022/06/13 03:36:09;;;;;;;2.60;2.10;;;;;;;20.74;69.49;100639.69;5034753;28;20797;-74
2022/06/13 03:38:39;;;;;;;3.50;1.90;;;;;;;20.75;69.61;100646.00;5034554;28;20395;-74
2022/06/13 03:41:07;;;;;;;3.20;1.95;;;;;;;20.74;69.54;100639.69;5034601;28;20402;-74
2022/06/13 03:43:39;;;;;;;2.90;1.83;;;;;;;20.74;69.30;100647.13;5016688;28;20391;-74
2022/06/13 03:46:39;;;;;;;8.32;1.63;;;;;;;20.68;68.92;100647.22;5034455;28;20428;-74
2022/06/13 03:49:21;;;;;;;3.90;1.67;;;;;;;20.48;69.40;100660.59;5034522;28;20414;-74
2022/06/13 03:51:54;;;;;;;2.28;1.77;;;;;;;20.41;69.56;100674.78;5016574;28;20439;-74
2022/06/13 03:54:41;;;;;;;1.83;1.70;;;;;;;20.46;69.41;100676.59;5034278;28;20403;-74
2022/06/13 03:57:17;;;;;;;2.13;1.80;;;;;;;20.54;69.19;100678.66;5034335;28;20431;-74
2022/06/13 04:00:08;;;;;;;3.70;1.95;;;;;;;20.58;69.08;100685.19;5034061;28;20429;-74
2022/06/13 04:02:35;;;;;;;2.40;1.92;;;;;;;20.61;69.18;100692.84;5018956;28;20391;-73
2022/06/13 04:05:01;;;;;;;4.90;2.13;;;;;;;20.66;69.21;100690.78;5033751;28;20810;-74
2022/06/13 04:07:31;;;;;;;1.90;1.80;;;;;;;20.71;68.98;100695.38;5033896;28;20465;-74
2022/06/13 04:10:10;;;;;;;1.60;1.50;;;;;;;20.72;68.69;100683.22;5016329;28;20425;-74
2022/06/13 04:12:57;;;;;;;3.65;1.90;;;;;;;20.73;68.71;100692.31;5020099;28;20379;-74
2022/06/13 04:15:45;;;;;;;1.85;1.65;;;;;;;20.71;68.68;100692.63;5033959;28;20403;-74
2022/06/13 04:18:16;;;;;;;2.75;1.52;;;;;;;20.71;68.26;100693.41;5033840;28;20474;-73
2022/06/13 04:21:00;;;;;;;1.80;1.70;;;;;;;20.71;68.27;100700.91;5033836;28;20398;-73
2022/06/13 04:23:34;;;;;;;3.78;1.63;;;;;;;20.67;67.26;100700.69;5033817;28;20512;-74
2022/06/13 04:26:26;;;;;;;3.92;1.50;;;;;;;20.60;64.90;100699.44;5015535;28;20418;-74
2022/06/13 04:29:22;;;;;;;3.78;1.40;;;;;;;20.53;64.15;100699.03;5015607;28;20414;-73
2022/06/13 04:31:49;;;;;;;3.57;1.70;;;;;;;20.46;63.27;100707.69;5015992;28;20817;-74
2022/06/13 04:34:20;;;;;;;4.75;1.85;;;;;;;20.40;62.91;100710.84;5033638;28;20751;-74
2022/06/13 04:36:47;;;;;;;7.82;2.00;;;;;;;20.33;62.43;100705.75;5032467;28;20478;-74
2022/06/13 04:39:17;;;;;;;3.90;1.77;;;;;;;20.25;62.34;100702.84;5015409;28;20444;-74
2022/06/13 04:41:46;;;;;;;3.63;1.75;;;;;;;20.27;62.48;100711.66;5033323;28;20414;-74
2022/06/13 04:44:19;;;;;;;2.83;1.50;;;;;;;20.31;62.00;100719.00;5033413;28;20402;-74
2022/06/13 04:46:46;;;;;;;4.00;2.10;;;;;;;20.34;61.22;100720.31;5033285;28;20415;-73
2022/06/13 04:49:27;;;;;;;3.47;1.45;;;;;;;20.32;60.79;100722.59;5033326;28;20406;-73
2022/06/13 04:51:55;;;;;;;4.60;1.52;;;;;;;20.32;60.58;100722.59;5033195;28;20399;-74
2022/06/13 04:54:35;;;;;;;5.17;1.80;;;;;;;20.32;59.91;100725.34;5015445;28;20582;-73
2022/06/13 04:57:01;;;;;;;4.68;1.52;;;;;;;20.35;58.66;100735.72;5033134;28;20383;-74
2022/06/13 04:59:28;;;;;;;4.03;1.38;;;;;;;20.33;58.85;100743.47;5032852;28;20406;-74
2022/06/13 05:01:55;;;;;;;4.35;1.73;;;;;;;20.33;58.14;100738.78;5033196;28;20395;-73
2022/06/13 05:04:25;;;;;;;4.43;2.25;;;;;;;20.35;57.62;100746.75;5032951;28;20407;-73
2022/06/13 05:06:53;;;;;;;3.15;1.60;;;;;;;20.37;57.34;100753.56;5015032;28;20802;-74
2022/06/13 05:09:29;;;;;;;5.53;1.67;;;;;;;20.38;56.62;100757.97;5032878;28;20456;-74
2022/06/13 05:12:19;;;;;;;4.68;1.50;;;;;;;20.40;55.92;100757.66;5033011;28;20428;-73
2022/06/13 05:15:03;;;;;;;4.90;1.33;;;;;;;20.41;56.78;100757.34;5032884;28;20441;-73
2022/06/13 05:17:47;;;;;;;5.50;2.00;;;;;;;20.38;56.24;100751.63;5032899;28;20402;-73
2022/06/13 05:20:21;;;;;;;4.28;1.42;;;;;;;20.37;55.06;100756.31;5032800;28;20449;-73
2022/06/13 05:23:09;;;;;;;7.18;1.63;;;;;;;20.35;54.52;100764.06;5032706;28;20388;-73
2022/06/13 05:26:04;;;;;;;4.13;1.73;;;;;;;20.47;53.21;100764.41;5032549;28;20582;-74
2022/06/13 05:28:31;;;;;;;4.63;1.75;;;;;;;20.56;53.57;100759.81;5015084;28;20442;-74
2022/06/13 05:31:05;;;;;;;5.13;1.40;;;;;;;20.59;51.80;100761.13;5032442;28;20446;-73
2022/06/13 05:33:35;;;;;;;4.35;1.38;;;;;;;20.63;52.46;100773.19;5032425;28;20387;-74
2022/06/13 05:36:02;;;;;;;4.65;1.60;;;;;;;20.72;52.17;100782.38;5032304;28;20394;-74
2022/06/13 05:38:41;;;;;;;4.07;1.37;;;;;;;20.75;50.47;100779.00;5031971;28;20435;-74
2022/06/13 05:41:06;;;;;;;2.70;1.38;;;;;;;20.77;50.57;100789.72;5020772;28;20944;-73
2022/06/13 05:43:32;;;;;;;3.17;1.40;;;;;;;20.82;50.63;100789.63;5032278;28;20494;-73
2022/06/13 05:45:58;;;;;;;3.80;1.80;;;;;;;20.93;50.29;100796.56;5032202;28;20727;-73
2022/06/13 05:48:23;;;;;;;6.60;1.40;;;;;;;20.97;50.93;100792.91;5031985;28;20407;-74
2022/06/13 05:50:49;;;;;;;3.33;1.40;;;;;;;21.04;51.52;100798.03;5031542;28;20394;-73
2022/06/13 05:53:20;;;;;;;5.60;1.83;;;;;;;21.07;51.87;100795.47;5032243;28;20387;-73
2022/06/13 05:55:46;;;;;;;6.22;1.73;;;;;;;20.93;51.10;100796.56;5032202;28;20450;-74
2022/06/13 05:58:13;;;;;;;3.90;1.48;;;;;;;20.92;51.13;100792.19;5031654;28;20437;-73
2022/06/13 06:00:48;;;;;;;7.20;1.88;;;;;;;20.97;52.06;100797.59;5032055;28;20609;-73
2022/06/13 06:03:13;;;;;;;4.15;1.73;;;;;;;21.03;51.75;100793.63;5032239;28;20470;-73
2022/06/13 06:05:40;;;;;;;9.77;2.00;;;;;;;21.01;51.42;100793.91;5031633;28;20831;-74
2022/06/13 06:08:12;;;;;;;3.50;1.40;;;;;;;20.95;51.74;100802.59;5031862;28;20415;-73
2022/06/13 06:10:37;;;;;;;4.87;1.57;;;;;;;21.00;51.50;100803.31;5031899;28;20773;-73
2022/06/13 06:13:03;;;;;;;2.85;1.60;;;;;;;21.09;51.99;100800.66;5030589;28;20387;-73
2022/06/13 06:15:29;;;;;;;5.33;1.83;;;;;;;21.06;52.10;100806.78;5031735;28;20387;-73
2022/06/13 06:17:54;;;;;;;3.92;1.83;;;;;;;20.99;51.28;100801.69;5031703;28;20411;-74
2022/06/13 06:20:22;;;;;;;4.90;1.60;;;;;;;21.08;52.04;100819.13;5031731;28;20393;-73
2022/06/13 06:22:47;;;;;;;3.53;1.60;;;;;;;21.14;51.98;100817.94;5031130;28;20387;-73
2022/06/13 06:25:12;;;;;;;6.07;1.70;;;;;;;21.15;50.71;100819.56;5013972;28;20762;-73
2022/06/13 06:27:38;;;;;;;5.13;1.90;;;;;;;21.11;50.42;100823.25;5031481;28;20419;-73
2022/06/13 06:30:05;;;;;;;7.13;1.95;;;;;;;21.07;50.53;100822.22;5029756;28;20821;-73
2022/06/13 06:32:30;;;;;;;4.30;1.50;;;;;;;21.08;51.20;100826.56;5031253;28;20750;-73
2022/06/13 06:34:55;;;;;;;3.90;1.80;;;;;;;21.07;51.08;100830.47;5031661;28;20394;-73
2022/06/13 06:37:21;;;;;;;7.07;1.93;;;;;;;21.05;50.31;100827.19;5031490;28;20490;-74
2022/06/13 06:39:47;;;;;;;4.40;1.87;;;;;;;20.85;50.52;100828.41;5013677;28;20391;-74
2022/06/13 06:42:12;;;;;;;3.20;1.45;;;;;;;20.80;50.95;100836.78;5031518;28;20476;-73
2022/06/13 06:44:37;;;;;;;3.47;1.75;;;;;;;20.77;50.55;100831.88;5031491;28;20390;-73
2022/06/13 06:47:06;;;;;;;4.80;2.10;;;;;;;20.73;50.40;100835.53;5031573;28;20482;-73
2022/06/13 06:49:34;;;;;;;4.45;1.73;;;;;;;20.74;50.04;100837.16;5031400;28;20418;-73
2022/06/13 06:52:01;;;;;;;2.50;1.37;;;;;;;20.74;50.30;100832.47;5031358;28;20379;-73
2022/06/13 06:59:54;;;;;;;5.18;1.90;;;;;;;20.80;49.60;100834.00;5030937;28;20853;-73
2022/06/13 07:02:23;;;;;;;8.30;2.07;;;;;;;20.85;49.84;100833.09;5015651;28;20391;-74
2022/06/13 07:04:50;;;;;;;3.05;1.60;;;;;;;20.80;49.75;100831.25;5035155;28;20411;-73
2022/06/13 07:07:15;;;;;;;4.00;1.60;;;;;;;20.77;49.75;100826.38;5034964;28;20417;-73
2022/06/13 07:09:41;;;;;;;7.97;2.37;;;;;;;20.78;49.38;100824.44;5035152;28;20391;-73
2022/06/13 07:12:06;;;;;;;4.10;1.80;;;;;;;20.82;49.22;100833.69;5035198;28;20394;-73
2022/06/13 07:14:34;;;;;;;3.23;1.70;;;;;;;20.86;48.66;100832.78;5035113;28;20468;-73
2022/06/13 07:17:04;;;;;;;5.10;1.85;;;;;;;20.90;47.96;100836.59;5034095;28;21434;-73
2022/06/13 07:19:30;;;;;;;3.70;1.95;;;;;;;20.91;47.84;100837.41;5017283;28;20469;-73
2022/06/13 07:21:56;;;;;;;4.63;1.52;;;;;;;20.94;48.39;100834.03;5034981;28;20478;-74
2022/06/13 07:24:23;;;;;;;6.25;1.80;;;;;;;20.94;48.34;100839.56;5034960;28;20810;-73
2022/06/13 07:26:49;;;;;;;5.88;1.98;;;;;;;21.01;48.83;100842.72;5034922;28;20413;-73
2022/06/13 07:29:17;;;;;;;3.70;1.50;;;;;;;21.13;48.16;100838.38;5034466;28;20769;-73
2022/06/13 07:31:46;;;;;;;7.20;1.63;;;;;;;21.19;48.08;100841.84;5034715;28;20390;-73
2022/06/13 07:34:18;;;;;;;6.63;1.90;;;;;;;21.13;47.50;100843.88;5034525;28;20426;-73
2022/06/13 07:36:44;;;;;;;8.47;2.17;;;;;;;21.05;47.15;100839.03;5034504;28;20403;-73
2022/06/13 07:39:10;;;;;;;4.38;1.70;;;;;;;21.08;48.18;100840.34;5034719;28;20910;-73
2022/06/13 07:41:37;;;;;;;6.65;2.13;;;;;;;21.13;48.28;100840.31;5034528;28;20422;-73
2022/06/13 07:44:03;;;;;;;2.85;1.50;;;;;;;21.22;48.75;100843.97;5034835;28;20387;-73
2022/06/13 07:46:30;;;;;;;4.70;1.70;;;;;;;21.20;48.21;100843.47;5034356;28;20407;-73
2022/06/13 07:48:57;;;;;;;11.73;1.88;;;;;;;21.25;48.09;100837.03;5034350;28;20877;-73
2022/06/13 07:51:23;;;;;;;5.10;1.70;;;;;;;21.30;48.22;100837.75;5034406;28;20391;-73
2022/06/13 07:53:49;;;;;;;2.78;1.80;;;;;;;21.33;48.24;100847.34;5034352;28;20444;-73
2022/06/13 07:56:17;;;;;;;5.88;1.85;;;;;;;21.39;48.03;100852.44;5034268;28;20389;-73
2022/06/13 07:58:44;;;;;;;4.90;2.08;;;;;;;21.49;48.20;100851.41;5034082;28;20407;-73
2022/06/13 08:01:11;;;;;;;3.25;1.85;;;;;;;21.39;48.19;100852.44;5034342;28;20391;-73
2022/06/13 08:03:36;;;;;;;5.03;2.00;;;;;;;21.39;47.95;100849.69;5034270;28;20675;-73
2022/06/13 08:06:03;;;;;;;6.28;2.33;;;;;;;21.42;48.03;100859.28;5033891;28;20554;-73
2022/06/13 08:08:28;;;;;;;5.82;2.05;;;;;;;21.51;48.15;100855.50;5016275;28;20906;-74
2022/06/13 08:10:57;;;;;;;6.80;2.10;;;;;;;21.49;48.17;100851.41;5033813;28;20395;-73
2022/06/13 08:13:24;;;;;;;4.07;1.55;;;;;;;21.43;48.13;100859.00;5015466;28;20435;-73
2022/06/13 08:15:50;;;;;;;8.27;1.88;;;;;;;21.48;47.85;100853.34;5033899;28;20395;-73
2022/06/13 08:18:16;;;;;;;5.22;2.25;;;;;;;21.62;47.95;100847.81;5033853;28;20464;-73
2022/06/13 08:20:42;;;;;;;4.80;1.92;;;;;;;21.77;47.54;100855.75;5034131;28;20433;-73
2022/06/13 08:23:10;;;;;;;6.10;2.45;;;;;;;21.91;47.03;100853.00;5033783;28;20440;-73
2022/06/13 08:25:37;;;;;;;5.70;1.65;;;;;;;21.92;47.17;100852.72;5016029;28;20392;-73
2022/06/13 08:28:03;;;;;;;4.35;1.75;;;;;;;21.99;48.06;100850.34;5033548;28;20518;-73
2022/06/13 08:30:38;;;;;;;7.45;2.33;;;;;;;22.13;47.89;100850.25;5033706;28;20482;-73
2022/06/13 08:33:04;;;;;;;3.58;1.88;;;;;;;22.27;46.47;100851.03;5034146;28;20863;-73
2022/06/13 08:35:30;;;;;;;5.30;2.50;;;;;;;22.32;45.81;100850.09;5033557;28;20482;-73
2022/06/13 08:37:55;;;;;;;4.70;1.90;;;;;;;22.29;45.41;100850.75;5033685;28;20534;-73
2022/06/13 08:40:22;;;;;;;5.27;1.93;;;;;;;22.29;45.55;100847.97;5033622;28;20383;-73
2022/06/13 08:43:04;;;;;;;5.10;1.63;;;;;;;22.38;46.01;100855.19;5033210;28;20399;-73
2022/06/13 08:45:57;;;;;;;5.70;1.92;;;;;;;22.42;46.19;100847.91;5033323;28;20399;-73
2022/06/13 08:48:40;;;;;;;3.10;1.73;;;;;;;22.28;46.56;100855.44;5033451;28;20770;-73
2022/06/13 08:51:33;;;;;;;4.03;1.80;;;;;;;22.22;46.63;100856.69;5015518;28;20414;-73
2022/06/13 08:54:01;;;;;;;6.20;1.77;;;;;;;22.08;46.69;100851.22;5009836;28;20522;-73
2022/06/13 08:56:30;;;;;;;3.40;1.58;;;;;;;22.04;46.44;100854.91;5033185;28;20403;-73
2022/06/13 08:59:22;;;;;;;3.90;2.50;;;;;;;21.97;45.89;100860.03;5033059;28;20406;-73
2022/06/13 09:01:46;;;;;;;5.00;1.87;;;;;;;22.33;43.73;100851.75;5032985;28;20398;-73
2022/06/13 09:04:19;;;;;;;6.85;1.88;;;;;;;22.73;43.41;100859.03;5033017;28;20392;-73
2022/06/13 09:07:00;;;;;;;3.70;1.98;;;;;;;23.04;43.45;100859.03;5032856;28;20474;-73
2022/06/13 09:09:34;;;;;;;4.38;1.40;;;;;;;23.00;43.05;100858.84;5033085;28;20407;-73
2022/06/13 09:12:07;;;;;;;3.80;1.67;;;;;;;22.87;43.43;100862.53;5032471;28;20952;-73
2022/06/13 09:14:35;;;;;;;4.60;1.67;;;;;;;22.74;43.08;100863.41;5032870;28;20419;-73
2022/06/13 09:17:10;;;;;;;4.40;1.70;;;;;;;22.66;42.66;100864.16;5032812;28;20858;-72
2022/06/13 09:20:10;;;;;;;6.28;1.67;;;;;;;22.39;44.13;100853.25;5032926;28;20402;-73
2022/06/13 09:22:39;;;;;;;3.30;1.35;;;;;;;22.68;41.54;100859.16;5014906;28;20395;-73
2022/06/13 09:25:16;;;;;;;5.53;1.63;;;;;;;23.15;40.13;100860.38;5016002;28;20387;-73
2022/06/13 09:27:54;;;;;;;4.93;1.70;;;;;;;23.50;39.86;100856.63;5032567;28;20536;-73
2022/06/13 09:30:24;;;;;;;7.97;2.08;;;;;;;23.77;40.83;100859.13;5032659;28;20403;-72
2022/06/13 09:32:53;;;;;;;2.47;1.23;;;;;;;23.98;38.86;100864.84;5032591;28;20509;-72
2022/06/13 09:35:21;;;;;;;4.60;1.65;;;;;;;24.19;38.31;100865.06;5032401;28;20384;-72
2022/06/13 09:37:53;;;;;;;4.50;1.60;;;;;;;24.40;37.46;100857.72;5032727;28;20406;-72
2022/06/13 09:40:26;;;;;;;4.60;1.30;;;;;;;24.44;37.26;100852.31;5032157;28;20862;-72
2022/06/13 09:43:03;;;;;;;1.83;1.17;;;;;;;24.68;36.88;100863.69;5017460;28;20395;-73
2022/06/13 09:45:30;;;;;;;4.63;1.55;;;;;;;24.71;35.94;100860.25;5032316;28;20402;-72
2022/06/13 09:48:12;;;;;;;5.05;1.50;;;;;;;24.66;35.95;100852.97;5032102;28;20414;-72
2022/06/13 09:50:49;;;;;;;3.22;1.98;;;;;;;24.89;36.65;100849.97;5031943;28;20387;-73
2022/06/13 09:53:21;;;;;;;2.55;1.20;;;;;;;25.10;36.73;100845.31;5032157;28;20513;-72
2022/06/13 09:56:02;;;;;;;3.15;1.20;;;;;;;25.59;36.33;100852.13;5030951;28;20395;-72
2022/06/13 09:58:28;;;;;;;3.60;1.40;;;;;;;25.95;35.65;100851.56;5031424;28;20399;-73
2022/06/13 10:01:05;;;;;;;3.10;1.40;;;;;;;25.33;36.46;100846.69;5014308;28;20426;-72
2022/06/13 10:03:47;;;;;;;3.92;1.17;;;;;;;24.69;37.37;100854.25;5032088;28;20395;-73
2022/06/13 10:06:32;;;;;;;5.38;1.80;;;;;;;25.74;36.42;100852.38;5013945;28;20849;-72
2022/06/13 10:09:17;;;;;;;4.07;2.10;;;;;;;28.52;32.83;100853.13;5031866;28;20395;-73
2022/06/13 10:12:06;;;;;;;2.65;1.33;;;;;;;29.23;31.10;100855.81;5031644;28;20426;-72
2022/06/13 10:14:40;;;;;;;3.00;1.03;;;;;;;29.26;30.31;100855.94;5031823;28;20493;-73
2022/06/13 10:17:40;;;;;;;2.83;1.37;;;;;;;29.80;28.20;100856.03;5031731;28;20403;-72
2022/06/13 10:20:06;;;;;;;2.25;1.30;;;;;;;30.96;26.56;100856.06;4970719;28;20404;-71
2022/06/13 10:23:05;;;;;;;1.90;0.93;;;;;;;31.34;26.29;100867.13;5010588;28;20402;-72
2022/06/13 10:25:51;;;;;;;3.50;1.60;;;;;;;28.92;29.07;100865.00;5013997;28;20395;-72
2022/06/13 10:28:31;;;;;;;2.08;1.15;;;;;;;27.81;30.90;100864.91;5018227;28;20414;-72
2022/06/13 10:31:19;;;;;;;2.28;0.88;;;;;;;30.57;26.56;100860.91;5031669;28;20448;-71
2022/06/13 10:34:06;;;;;;;1.43;0.90;;;;;;;32.84;23.19;100855.59;5031480;28;20406;-72
2022/06/13 10:36:43;;;;;;;2.80;0.57;;;;;;;33.57;22.91;100864.28;5031200;28;20390;-72
2022/06/13 10:39:19;;;;;;;2.35;0.80;;;;;;;34.35;21.08;100859.94;5031576;28;20391;-72
2022/06/13 10:41:49;;;;;;;2.03;0.88;;;;;;;34.76;20.37;100858.47;5013243;28;20482;-72
2022/06/13 10:44:18;;;;;;;1.83;0.85;;;;;;;35.16;20.40;100863.00;5031418;28;20395;-72
2022/06/13 10:46:49;;;;;;;1.15;0.90;;;;;;;35.26;19.99;100859.38;5031416;28;20483;-72
2022/06/13 10:49:23;;;;;;;3.30;0.85;;;;;;;35.82;18.93;100849.25;5031319;28;20862;-72
2022/06/13 10:51:49;;;;;;;0.70;0.70;;;;;;;35.30;18.88;100867.81;5031476;28;20866;-72
2022/06/13 10:54:19;;;;;;;0.77;0.77;;;;;;;33.29;20.12;100856.44;5031435;28;20395;-72
2022/06/13 10:56:49;;;;;;;2.22;0.75;;;;;;;32.84;21.35;100857.59;5031412;28;20494;-73
2022/06/13 10:59:28;;;;;;;3.10;0.70;;;;;;;32.57;21.87;100867.31;5031382;28;20395;-72
2022/06/13 11:02:03;;;;;;;1.50;1.02;;;;;;;34.03;20.11;100856.13;5031320;28;20423;-72
2022/06/13 11:04:36;;;;;;;1.70;0.60;;;;;;;35.03;19.07;100849.66;5031167;28;20391;-72
2022/06/13 11:07:14;;;;;;;0.77;0.52;;;;;;;35.66;18.22;100854.53;5031235;28;20441;-72
2022/06/13 11:09:46;;;;;;;1.42;0.95;;;;;;;36.00;18.29;100864.09;5031237;28;20399;-72
2022/06/13 11:12:33;;;;;;;2.57;0.70;;;;;;;36.38;18.16;100868.03;5031349;28;20387;-72
2022/06/13 11:23:28;;;;;;;2.73;0.83;;;;;;;37.12;15.88;100864.78;5019165;28;20509;-72
2022/06/13 11:25:57;;;;;;;1.02;0.70;;;;;;;37.08;15.68;100849.88;5031158;28;20979;-72
2022/06/13 11:28:27;;;;;;;3.47;0.90;;;;;;;37.47;16.05;100857.25;5031066;28;20410;-72
2022/06/13 11:31:03;;;;;;;2.22;0.63;;;;;;;35.93;16.58;100856.47;5030964;28;20624;-72
2022/06/13 11:33:32;;;;;;;1.25;0.70;;;;;;;35.10;17.47;100850.50;5031326;28;20391;-72
2022/06/13 11:36:22;;;;;;;1.50;1.20;;;;;;;35.75;17.24;100855.72;5031061;28;20386;-72
2022/06/13 11:39:03;;;;;;;2.05;0.60;;;;;;;35.57;16.85;100834.38;5030840;28;20394;-72
2022/06/13 11:41:34;;;;;;;0.55;0.47;;;;;;;34.07;18.47;100845.72;5029851;28;20470;-72
2022/06/13 11:44:04;;;;;;;1.35;0.68;;;;;;;33.19;19.19;100838.31;5013354;28;20482;-72
2022/06/13 11:46:53;;;;;;;1.00;0.77;;;;;;;32.08;19.77;100831.84;5030850;28;20391;-72
2022/06/13 11:49:21;;;;;;;1.10;0.73;;;;;;;31.71;21.13;100842.91;5032753;28;20395;-72
2022/06/13 11:52:05;;;;;;;2.90;0.70;;;;;;;33.56;19.15;100840.97;5015173;28;20782;-72
2022/06/13 11:54:41;;;;;;;0.77;0.60;;;;;;;34.88;18.38;100840.38;5034098;28;20387;-72
2022/06/13 11:57:13;;;;;;;3.75;0.85;;;;;;;34.73;17.73;100833.13;5016554;28;20407;-72
2022/06/13 11:59:50;;;;;;;1.55;0.70;;;;;;;33.90;18.85;100821.94;5034361;28;20406;-72
2022/06/13 12:02:38;;;;;;;1.52;0.80;;;;;;;34.70;17.58;100817.03;5034233;28;20505;-72
2022/06/13 12:05:14;;;;;;;1.75;0.68;;;;;;;35.47;17.44;100830.34;5034177;28;20894;-71
2022/06/13 12:07:53;;;;;;;2.38;0.75;;;;;;;34.57;17.59;100827.84;5034108;28;20430;-72
2022/06/13 12:10:22;;;;;;;0.85;0.63;;;;;;;33.15;18.72;100834.66;5016072;28;20403;-72
2022/06/13 12:12:47;;;;;;;2.40;0.75;;;;;;;32.96;19.03;100820.03;5033999;28;20454;-72
2022/06/13 12:15:14;;;;;;;1.40;0.60;;;;;;;33.58;18.95;100830.16;5032910;28;20399;-72